Bonnie, Utah
Current Conditions -  °F | °C
As of 11:35 PM on Tuesday 27 Jan 2015 (Local Time) from KPVU Reporting Station
Broken Clouds Broken Clouds  
Wind Chill: 43°   Ceiling: 9000
Heat Index: 43°   Visibility: 10mi
Dew Point: 34°   Wind: 3mph
Humidity: 70%   Direction: 110°ESE
Pressure: 30.21"   Gusts: NA
Location:  40.2724°N, 111.717°W
Report Text: KPVU 280635Z AUTO 11003KT 10SM BKN090 06/01 A3021 RMK AO1
Loading
Personal Weather Stations






























Interactive Weather Map New forecast layout! Learn more

10-Day Weather Forecast

Advertisements
Track Severe Weather on mobile